createdAt,value
2018-04-28T00:01:04.742Z,2.63
2018-04-28T00:04:09.923Z,1.90
2018-04-28T00:07:14.877Z,2.53
2018-04-28T00:10:19.461Z,3.03
2018-04-28T00:13:25.347Z,2.50
2018-04-28T00:16:32.333Z,2.60
2018-04-28T00:19:37.236Z,2.50
2018-04-28T00:22:42.522Z,2.70
2018-04-28T00:25:57.938Z,2.40
2018-04-28T00:32:34.844Z,2.47
2018-04-28T00:35:39.189Z,2.50
2018-04-28T00:38:54.938Z,2.67
2018-04-28T00:42:00.126Z,2.53
2018-04-28T00:45:11.624Z,3.30
2018-04-28T00:51:57.929Z,2.40
2018-04-28T00:55:05.727Z,3.57
2018-04-28T00:58:18.473Z,3.00
2018-04-28T01:01:23.693Z,2.80
2018-04-28T01:04:38.113Z,3.33
2018-04-28T01:07:42.458Z,2.40
2018-04-28T01:10:50.661Z,2.80
2018-04-28T01:13:57.232Z,2.93
2018-04-28T01:17:02.818Z,2.97
2018-04-28T01:20:07.202Z,2.70
2018-04-28T01:23:12.337Z,3.27
2018-04-28T01:26:18.253Z,2.87
2018-04-28T01:29:23.402Z,2.60
2018-04-28T01:32:28.337Z,2.73
2018-04-28T01:39:09.203Z,2.90
2018-04-28T01:42:17.157Z,3.10
2018-04-28T01:48:55.881Z,3.20
2018-04-28T01:52:15.133Z,2.77
2018-04-28T01:55:21.133Z,3.10
2018-04-28T01:58:31.999Z,3.27
2018-04-28T02:01:42.834Z,3.10
2018-04-28T02:04:52.647Z,2.77
2018-04-28T02:07:57.991Z,3.10
2018-04-28T02:11:04.253Z,3.53
2018-04-28T02:17:54.974Z,2.70
2018-04-28T02:21:07.946Z,3.10
2018-04-28T02:24:16.209Z,3.03
2018-04-28T02:27:21.807Z,4.40
2018-04-28T02:30:26.220Z,2.90
2018-04-28T02:33:33.922Z,2.80
2018-04-28T02:36:47.251Z,3.10
2018-04-28T02:39:56.194Z,3.10
2018-04-28T02:43:02.138Z,3.03
2018-04-28T02:46:10.225Z,3.37
2018-04-28T02:49:18.517Z,3.20
2018-04-28T02:52:35.343Z,3.00
2018-04-28T02:59:47.021Z,3.10
2018-04-28T03:02:54.460Z,3.47
2018-04-28T03:06:01.606Z,3.40
2018-04-28T03:09:07.987Z,3.00
2018-04-28T03:12:14.511Z,3.33
2018-04-28T03:15:20.551Z,3.07
2018-04-28T03:18:26.253Z,3.20
2018-04-28T03:21:31.299Z,3.47
2018-04-28T03:24:49.601Z,3.50
2018-04-28T03:28:15.815Z,3.03
2018-04-28T03:31:37.096Z,3.70
2018-04-28T03:34:44.571Z,3.67
2018-04-28T03:41:25.614Z,3.30
2018-04-28T03:44:33.278Z,2.87
2018-04-28T03:47:41.237Z,3.73
2018-04-28T03:50:54.229Z,3.70
2018-04-28T03:54:00.845Z,3.53
2018-04-28T03:57:07.102Z,3.00
2018-04-28T04:00:22.853Z,2.80
2018-04-28T04:03:26.921Z,3.23
2018-04-28T04:06:35.447Z,3.13
2018-04-28T04:09:42.106Z,3.00
2018-04-28T04:12:52.554Z,3.33
2018-04-28T04:15:59.515Z,3.60
2018-04-28T04:23:09.552Z,3.90
2018-04-28T04:26:18.091Z,3.83
2018-04-28T04:29:33.882Z,4.03
2018-04-28T04:32:39.666Z,3.90
2018-04-28T04:36:05.822Z,2.87
2018-04-28T04:43:21.549Z,3.20
2018-04-28T04:46:38.019Z,3.70
2018-04-28T04:53:56.250Z,3.60
2018-04-28T04:57:04.540Z,3.77
2018-04-28T05:03:47.779Z,3.20
2018-04-28T05:06:55.509Z,3.17
2018-04-28T05:10:10.510Z,3.70
2018-04-28T05:17:03.354Z,3.00
2018-04-28T05:20:32.780Z,3.33
2018-04-28T05:23:47.954Z,3.40
2018-04-28T05:26:54.291Z,3.03
2018-04-28T05:33:42.574Z,3.00
2018-04-28T05:40:31.055Z,3.70
2018-04-28T05:47:24.065Z,3.63
2018-04-28T05:50:39.810Z,3.70
2018-04-28T05:57:31.330Z,3.60
2018-04-28T06:00:35.954Z,3.40
2018-04-28T06:03:55.093Z,4.13
2018-04-28T06:07:10.768Z,3.37
2018-04-28T06:10:27.294Z,3.47
2018-04-28T06:13:49.846Z,3.43
2018-04-28T06:17:02.054Z,3.70
2018-04-28T06:23:44.542Z,3.97
2018-04-28T06:26:49.605Z,3.57
2018-04-28T06:29:55.414Z,4.00
2018-04-28T06:33:00.859Z,3.53
2018-04-28T06:36:06.097Z,3.63
2018-04-28T06:39:12.321Z,4.23
2018-04-28T06:42:17.259Z,4.27
2018-04-28T06:45:22.926Z,3.50
2018-04-28T06:48:29.169Z,3.63
2018-04-28T06:51:35.341Z,3.40
2018-04-28T06:54:41.042Z,3.40
2018-04-28T06:57:46.874Z,3.80
2018-04-28T07:00:51.862Z,3.40
2018-04-28T07:03:57.957Z,3.53
2018-04-28T07:07:02.902Z,3.67
2018-04-28T07:10:08.066Z,3.40
2018-04-28T07:13:13.318Z,3.50
2018-04-28T07:16:19.534Z,3.63
2018-04-28T07:19:24.229Z,3.37
2018-04-28T07:22:29.478Z,3.80
2018-04-28T07:25:35.642Z,3.77
2018-04-28T07:28:41.939Z,4.10
2018-04-28T07:31:47.870Z,3.87
2018-04-28T07:34:52.803Z,4.10
2018-04-28T07:37:57.661Z,3.90
2018-04-28T07:41:02.706Z,3.23
2018-04-28T07:44:08.206Z,3.47
2018-04-28T07:47:14.134Z,3.90
2018-04-28T07:50:19.098Z,3.50
2018-04-28T07:53:23.834Z,3.30
2018-04-28T07:56:28.356Z,3.50
2018-04-28T07:59:33.715Z,3.20
2018-04-28T08:02:39.238Z,3.43
2018-04-28T08:05:44.167Z,3.40
2018-04-28T08:08:49.006Z,3.70
2018-04-28T08:11:54.030Z,3.80
2018-04-28T08:14:58.539Z,3.13
2018-04-28T08:18:03.959Z,4.03
2018-04-28T08:21:10.149Z,3.20
2018-04-28T08:24:14.932Z,3.37
2018-04-28T08:27:20.216Z,4.07
2018-04-28T08:30:25.973Z,3.03
2018-04-28T08:33:31.850Z,3.40
2018-04-28T08:36:37.462Z,3.33
2018-04-28T08:39:41.553Z,3.70
2018-04-28T08:42:47.546Z,3.30
2018-04-28T08:45:52.906Z,3.90
2018-04-28T08:48:58.074Z,3.97
2018-04-28T08:52:03.472Z,4.27
2018-04-28T08:55:09.466Z,2.90
2018-04-28T08:58:15.407Z,3.83
2018-04-28T09:01:21.618Z,4.37
2018-04-28T09:04:26.241Z,4.50
2018-04-28T09:07:41.646Z,4.07
2018-04-28T09:10:47.770Z,4.47
2018-04-28T09:13:53.629Z,5.03
2018-04-28T09:16:58.847Z,4.70
2018-04-28T09:20:04.468Z,4.03
2018-04-28T09:23:10.346Z,4.63
2018-04-28T09:26:17.406Z,4.40
2018-04-28T09:29:24.443Z,4.50
2018-04-28T09:32:30.576Z,4.20
2018-04-28T09:35:36.522Z,4.23
2018-04-28T09:38:42.442Z,4.03
2018-04-28T09:41:48.377Z,4.53
2018-04-28T09:44:55.254Z,4.67
2018-04-28T09:48:01.408Z,4.40
2018-04-28T09:51:08.266Z,3.80
2018-04-28T09:54:14.143Z,4.57
2018-04-28T09:57:19.375Z,4.60
2018-04-28T10:00:30.243Z,5.60
2018-04-28T10:03:35.458Z,5.20
2018-04-28T10:06:41.218Z,5.00
2018-04-28T10:09:47.164Z,3.60
2018-04-28T10:12:53.302Z,4.90
2018-04-28T10:16:00.429Z,4.10
2018-04-28T10:19:07.173Z,4.10
2018-04-28T10:22:14.252Z,4.10
2018-04-28T10:25:21.667Z,4.10
2018-04-28T10:28:27.454Z,3.90
2018-04-28T10:31:34.302Z,4.40
2018-04-28T10:34:40.435Z,4.17
2018-04-28T10:37:46.577Z,3.70
2018-04-28T10:40:52.544Z,4.13
2018-04-28T10:43:59.778Z,3.97
2018-04-28T10:47:05.911Z,4.33
2018-04-28T10:50:12.812Z,3.83
2018-04-28T10:53:19.861Z,3.83
2018-04-28T10:56:25.995Z,4.00
2018-04-28T10:59:31.217Z,2.80
2018-04-28T11:02:37.154Z,3.80
2018-04-28T11:05:43.750Z,4.10
2018-04-28T11:08:49.882Z,4.70
2018-04-28T11:11:56.688Z,4.00
2018-04-28T11:15:03.751Z,3.60
2018-04-28T11:18:09.895Z,3.50
2018-04-28T11:21:15.677Z,3.00
2018-04-28T11:24:21.730Z,2.10
2018-04-28T11:27:27.882Z,2.70
2018-04-28T11:30:33.834Z,2.97
2018-04-28T11:33:40.602Z,2.70
2018-04-28T11:36:47.654Z,3.20
2018-04-28T11:39:54.803Z,2.20
2018-04-28T11:43:00.669Z,3.47
2018-04-28T11:46:08.774Z,3.50
2018-04-28T11:49:15.912Z,3.00
2018-04-28T11:52:22.949Z,3.90
2018-04-28T11:55:29.985Z,3.00
2018-04-28T11:58:37.131Z,2.67
2018-04-28T12:01:42.967Z,3.20
2018-04-28T12:04:48.915Z,2.40
2018-04-28T12:07:55.979Z,2.57
2018-04-28T12:11:02.113Z,2.50
2018-04-28T12:14:08.094Z,2.60
2018-04-28T12:17:13.311Z,2.43
2018-04-28T12:20:20.370Z,2.67
2018-04-28T12:23:26.594Z,2.43
2018-04-28T12:26:32.438Z,2.80
2018-04-28T12:29:38.383Z,2.50
2018-04-28T12:32:43.627Z,2.90
2018-04-28T12:35:49.769Z,3.07
2018-04-28T12:38:57.742Z,3.23
2018-04-28T12:42:03.869Z,3.83
2018-04-28T12:45:09.912Z,2.83
2018-04-28T12:48:16.697Z,3.77
2018-04-28T12:51:23.824Z,3.03
2018-04-28T12:54:30.866Z,2.80
2018-04-28T12:57:36.777Z,2.90
2018-04-28T13:00:43.658Z,2.03
2018-04-28T13:03:49.794Z,2.20
2018-04-28T13:06:55.700Z,3.10
2018-04-28T13:10:00.935Z,2.80
2018-04-28T13:13:07.981Z,2.83
2018-04-28T13:16:15.042Z,2.90
2018-04-28T13:19:22.062Z,2.60
2018-04-28T13:22:29.105Z,2.20
2018-04-28T13:25:34.900Z,2.30
2018-04-28T13:28:40.115Z,2.70
2018-04-28T13:31:45.346Z,2.60
2018-04-28T13:34:51.457Z,2.60
2018-04-28T13:37:58.502Z,2.70
2018-04-28T13:41:05.564Z,2.80
2018-04-28T13:44:11.935Z,2.10
2018-04-28T13:47:17.209Z,2.00
2018-04-28T13:50:23.325Z,2.27
2018-04-28T13:53:30.491Z,2.50
2018-04-28T13:56:36.312Z,2.20
2018-04-28T13:59:42.458Z,2.30
2018-04-28T14:02:49.607Z,1.73
2018-04-28T14:05:55.734Z,1.60
2018-04-28T14:09:01.437Z,3.07
2018-04-28T14:12:07.450Z,2.97
2018-04-28T14:15:12.688Z,2.80
2018-04-28T14:18:17.911Z,2.27
2018-04-28T14:21:23.129Z,2.23
2018-04-28T14:24:30.167Z,2.10
2018-04-28T14:27:36.145Z,2.30
2018-04-28T14:30:43.098Z,2.10
2018-04-28T14:33:49.321Z,2.57
2018-04-28T14:36:55.461Z,2.50
2018-04-28T14:40:00.677Z,2.70
2018-04-28T14:43:07.079Z,2.00
2018-04-28T14:46:12.904Z,2.13
2018-04-28T14:49:19.041Z,2.57
2018-04-28T14:52:24.269Z,2.23
2018-04-28T14:55:29.482Z,1.80
2018-04-28T14:58:34.698Z,2.43
2018-04-28T15:01:41.761Z,2.40
2018-04-28T15:04:48.789Z,2.10
2018-04-28T15:07:54.922Z,2.30
2018-04-28T15:11:01.794Z,2.40
2018-04-28T15:14:07.942Z,2.93
2018-04-28T15:17:15.026Z,3.10
2018-04-28T15:20:21.150Z,2.90
2018-04-28T15:23:27.121Z,2.97
2018-04-28T15:26:33.078Z,2.37
2018-04-28T15:29:38.313Z,2.47
2018-04-28T15:32:43.526Z,3.00
2018-04-28T15:35:51.622Z,2.70
2018-04-28T15:38:57.762Z,1.90
2018-04-28T15:42:03.939Z,2.83
2018-04-28T15:45:09.170Z,2.60
2018-04-28T15:48:15.299Z,2.50
2018-04-28T15:51:20.925Z,2.80
2018-04-28T15:54:26.172Z,2.53
2018-04-28T15:57:31.957Z,2.30
2018-04-28T16:00:39.154Z,2.53
2018-04-28T16:03:45.285Z,2.30
2018-04-28T16:06:50.503Z,2.67
2018-04-28T16:09:55.727Z,2.57
2018-04-28T16:13:02.767Z,2.60
2018-04-28T16:16:08.620Z,2.30
2018-04-28T16:19:14.084Z,2.47
2018-04-28T16:22:19.298Z,3.20
2018-04-28T16:25:24.541Z,2.47
2018-04-28T16:28:29.815Z,3.00
2018-04-28T16:31:35.009Z,2.73
2018-04-28T16:34:40.227Z,3.00
2018-04-28T16:37:46.343Z,2.90
2018-04-28T16:40:52.545Z,2.97
2018-04-28T16:43:58.479Z,2.40
2018-04-28T16:47:03.697Z,2.60
2018-04-28T16:50:10.423Z,2.60
2018-04-28T16:53:16.550Z,2.97
2018-04-28T16:56:21.772Z,2.57
2018-04-28T16:59:28.093Z,3.53
2018-04-28T17:02:35.184Z,3.67
2018-04-28T17:05:40.890Z,2.83
2018-04-28T17:08:46.837Z,2.90
2018-04-28T17:11:53.047Z,3.37
2018-04-28T17:14:59.094Z,3.00
2018-04-28T17:18:04.308Z,3.60
2018-04-28T17:21:10.647Z,3.50
2018-04-28T17:24:15.903Z,2.90
2018-04-28T17:27:22.971Z,3.57
2018-04-28T17:30:28.635Z,3.20
2018-04-28T17:33:34.867Z,3.13
2018-04-28T17:36:40.790Z,2.70
2018-04-28T17:39:46.766Z,2.60
2018-04-28T17:42:52.871Z,3.03
2018-04-28T17:45:59.458Z,3.37
2018-04-28T17:49:05.374Z,2.70
2018-04-28T17:52:10.584Z,3.00
2018-04-28T17:55:15.800Z,2.70
2018-04-28T17:58:21.014Z,2.50
2018-04-28T18:01:27.560Z,2.87
2018-04-28T18:04:34.514Z,3.50
2018-04-28T18:07:40.637Z,2.97
2018-04-28T18:10:46.783Z,2.47
2018-04-28T18:13:51.997Z,2.50
2018-04-28T18:16:57.658Z,2.90
2018-04-28T18:20:03.618Z,3.77
2018-04-28T18:23:08.958Z,4.20
2018-04-28T18:26:14.281Z,5.80
2018-04-28T18:29:19.602Z,5.53
2018-04-28T18:32:26.789Z,5.33
2018-04-28T18:35:33.550Z,5.40
2018-04-28T18:38:39.682Z,5.63
2018-04-28T18:41:45.822Z,5.67
2018-04-28T18:44:52.857Z,5.77
2018-04-28T18:47:59.898Z,5.77
2018-04-28T18:51:06.975Z,6.13
2018-04-28T18:54:13.110Z,5.30
2018-04-28T18:57:19.275Z,5.63
2018-04-28T19:00:24.485Z,5.77
2018-04-28T19:03:30.550Z,5.60
2018-04-28T19:06:37.581Z,5.40
2018-04-28T19:09:44.785Z,5.60
2018-04-28T19:12:50.761Z,6.50
2018-04-28T19:15:58.014Z,5.63
2018-04-28T19:19:04.194Z,5.87
2018-04-28T19:22:09.418Z,5.50
2018-04-28T19:25:15.650Z,4.93
2018-04-28T19:28:21.782Z,5.00
2018-04-28T19:31:27.501Z,5.63
2018-04-28T19:34:33.554Z,5.00
2018-04-28T19:37:39.451Z,5.13
2018-04-28T19:40:44.432Z,6.13
2018-04-28T19:43:49.846Z,5.53
2018-04-28T19:46:55.992Z,6.30
2018-04-28T19:50:03.094Z,6.20
2018-04-28T19:53:09.327Z,5.30
2018-04-28T19:56:16.153Z,5.07
2018-04-28T19:59:22.337Z,5.10
2018-04-28T20:02:29.199Z,5.17
2018-04-28T20:05:34.422Z,5.50
2018-04-28T20:08:39.611Z,5.43
2018-04-28T20:11:45.234Z,5.30
2018-04-28T20:14:50.224Z,5.80
2018-04-28T20:17:56.762Z,4.93
2018-04-28T20:21:03.812Z,4.80
2018-04-28T20:24:20.177Z,5.30
2018-04-28T20:27:25.302Z,5.43
2018-04-28T20:30:32.346Z,4.90
2018-04-28T20:33:39.410Z,5.23
2018-04-28T20:36:45.541Z,4.47
2018-04-28T20:39:52.578Z,5.40
2018-04-28T20:42:58.622Z,5.40
2018-04-28T20:46:04.326Z,5.00
2018-04-28T20:49:09.583Z,5.27
2018-04-28T20:52:15.717Z,4.90
2018-04-28T20:55:22.258Z,5.70
2018-04-28T20:58:28.396Z,5.60
2018-04-28T21:01:34.094Z,5.13
2018-04-28T21:04:40.240Z,5.50
2018-04-28T21:07:45.879Z,5.53
2018-04-28T21:10:51.814Z,4.20
2018-04-28T21:13:57.030Z,4.80
2018-04-28T21:17:05.046Z,4.83
2018-04-28T21:20:12.164Z,4.73
2018-04-28T21:23:18.070Z,4.93
2018-04-28T21:26:23.979Z,5.43
2018-04-28T21:29:30.157Z,4.27
2018-04-28T21:32:35.375Z,4.53
2018-04-28T21:35:41.535Z,4.10
2018-04-28T21:38:48.089Z,4.90
2018-04-28T21:41:54.283Z,4.80
2018-04-28T21:45:00.466Z,4.90
2018-04-28T21:48:06.614Z,5.50
2018-04-28T21:51:12.755Z,5.80
2018-04-28T21:54:18.914Z,5.27
2018-04-28T21:57:25.799Z,4.30
2018-04-28T22:00:31.625Z,5.10
2018-04-28T22:03:37.283Z,3.70
2018-04-28T22:06:44.095Z,4.70
2018-04-28T22:09:49.306Z,4.03
2018-04-28T22:12:55.167Z,4.80
2018-04-28T22:16:02.148Z,3.50
2018-04-28T22:19:08.266Z,3.87
2018-04-28T22:22:15.140Z,4.37
2018-04-28T22:25:21.007Z,4.40
2018-04-28T22:28:26.222Z,4.67
2018-04-28T22:31:31.438Z,4.60
2018-04-28T22:34:36.842Z,4.97
2018-04-28T22:37:43.911Z,4.40
2018-04-28T22:40:50.029Z,4.70
2018-04-28T22:43:55.971Z,3.80
2018-04-28T22:47:01.181Z,3.53
2018-04-28T22:50:06.419Z,4.27
2018-04-28T22:53:12.134Z,3.70
2018-04-28T22:56:18.282Z,4.00
2018-04-28T22:59:25.313Z,3.80
2018-04-28T23:02:30.692Z,3.43
2018-04-28T23:05:35.418Z,3.77
2018-04-28T23:08:40.464Z,3.00
2018-04-28T23:11:47.106Z,4.13
2018-04-28T23:14:52.929Z,4.60
2018-04-28T23:17:58.870Z,3.90
2018-04-28T23:21:04.530Z,3.40
2018-04-28T23:24:09.746Z,4.17
2018-04-28T23:27:15.872Z,3.80
2018-04-28T23:30:22.043Z,4.30
2018-04-28T23:33:27.237Z,3.03
2018-04-28T23:36:32.452Z,3.00
2018-04-28T23:39:37.898Z,4.10
2018-04-28T23:42:44.067Z,4.20
2018-04-28T23:45:51.328Z,3.40
2018-04-28T23:48:57.182Z,2.83
2018-04-28T23:52:04.318Z,4.00
2018-04-28T23:55:09.904Z,3.80
2018-04-28T23:58:15.833Z,3.10
